Grain Valley, MO (64029)

10:20 PM CDT die 03o August, anno 2015 (GMT -0500)
Rosewood Hills | | Change Station
CLOSE
Current Station
Personal Weather Stations
Location: Grain Valley, MO
Elevation: 850 ft
Nearby Weather Stations

Elev 850 ft 39.04 °N, 94.21 °W | Updated 26 seconds ago

Serena
Serena
75.8 °F
Feels Like 77 °F
N
0.2
Ventus Variabilis Ventus from Eurus
Gusts 0.9 mph

Hodie
High -- | Low -- °F
--% Chance of Precip.
Yesterday
High -- | Low -- °F
Precip. -- in
6:19 AM 8:26 PM
Waning Gibbous, 81% visible
Pressio 29.91 in
Visibilitas 10.0 milia passuum
Clouds Serena
Index Caloris 77 °F
Frigus in quo Ros apparet 69 °F
Umor 79%
Rainfall 0.00 in
Snow Depth Not available.
UV 0 out of 12
Pollen 6.80 out of 12
Air Quality Not available.
Flu Activity Not available.
METAR KLXT 040253Z AUTO 06009KT 10SM CLR 26/21 A2994 RMK AO2 SLP128 T02610206 53013

More Conditions Fewer Conditions

Pressio 29.91 in
Visibilitas 10.0 milia passuum
Clouds Serena
Index Caloris 77 °F
Frigus in quo Ros apparet 69 °F
Umor 79%
Rainfall 0.00 in
Snow Depth Not available.
UV 0 out of 12
Pollen 6.80 out of 12
Air Quality Not available.
Flu Activity Not available.
METAR KLXT 040253Z AUTO 06009KT 10SM CLR 26/21 A2994 RMK AO2 SLP128 T02610206 53013

More Conditions Fewer Conditions

10-Day Weather Forecast

×

Almanac

Astronomy

Aug. 03, 2015 Rise Set
Actual Time
Civil Twilight
Nautical Twilight
Astronomical Twilight
Moon
Length Of Visible Light
Length of Day
Tomorrow will be .
, % of the Moon is Illuminated

Today's Extremes

State Highs State Lows

Community

WunderPhotos

Upload Photos

1,843,838 photos uploaded!

WunderBlogs® & News

Nearby

Air Quality

  Air Quality AQ Index Pollutant
Not available.

Snow Depth

Station Depth Elevation

Earthquake Activity

City Distance Mag. Time & Date
Minimum magnitude displayed is 2.5.

Coastal Water Temperatures

Locus Calor

Stations

Nearby Weather Stations

Station Location Temp Frigus Venti Frigus in quo Ros apparet Umor Ventus Precip. Elev Renovata Type